createdAt,value
2022-11-18T01:38:44.508Z,14.55
2022-11-18T01:41:12.901Z,13.70
2022-11-18T01:43:54.465Z,12.50
2022-11-18T01:46:23.476Z,15.95
2022-11-18T01:49:13.492Z,16.23
2022-11-18T01:51:47.011Z,16.63
2022-11-18T01:54:33.300Z,14.40
2022-11-18T01:57:04.080Z,15.95
2022-11-18T01:59:33.493Z,13.68
2022-11-18T02:02:01.617Z,15.02
2022-11-18T02:04:30.717Z,15.32
2022-11-18T02:06:58.719Z,14.32
2022-11-18T02:09:28.207Z,15.75
2022-11-18T02:11:56.333Z,13.13
2022-11-18T02:14:28.976Z,14.65
2022-11-18T02:17:24.227Z,15.05
2022-11-18T02:20:09.678Z,14.75
2022-11-18T02:23:19.900Z,13.20
2022-11-18T02:26:00.141Z,14.30
2022-11-18T02:28:37.417Z,13.23
2022-11-18T02:31:11.354Z,13.63
2022-11-18T02:33:50.541Z,13.65
2022-11-18T02:36:21.007Z,11.88
2022-11-18T02:38:52.795Z,13.73
2022-11-18T02:41:24.380Z,12.63
2022-11-18T02:44:13.484Z,12.63
2022-11-18T02:46:42.615Z,12.50
2022-11-18T02:49:17.290Z,11.77
2022-11-18T02:51:45.404Z,10.90
2022-11-18T02:54:13.177Z,12.00
2022-11-18T02:56:42.316Z,12.10
2022-11-18T02:59:10.335Z,12.93
2022-11-18T03:01:38.831Z,11.35
2022-11-18T03:04:08.526Z,10.38
2022-11-18T03:06:38.752Z,12.48
2022-11-18T03:09:25.096Z,11.40
2022-11-18T03:12:09.907Z,11.75
2022-11-18T03:14:46.755Z,11.30
2022-11-18T03:17:22.094Z,11.32
2022-11-18T03:20:12.847Z,10.40
2022-11-18T03:23:00.212Z,11.80
2022-11-18T03:25:37.548Z,11.45
2022-11-18T03:28:33.904Z,11.55
2022-11-18T03:31:49.386Z,10.68
2022-11-18T03:34:30.176Z,10.52
2022-11-18T03:37:00.795Z,11.40
2022-11-18T03:39:31.234Z,11.02
2022-11-18T03:42:21.724Z,10.90
2022-11-18T03:44:52.867Z,11.18
2022-11-18T03:47:36.341Z,10.43
2022-11-18T03:50:26.504Z,11.48
2022-11-18T03:52:55.786Z,11.05
2022-11-18T03:55:32.310Z,11.20
2022-11-18T03:58:14.444Z,10.60
2022-11-18T04:00:45.244Z,10.68
2022-11-18T04:03:13.188Z,11.30
2022-11-18T04:05:42.812Z,12.98
2022-11-18T04:08:22.914Z,11.70
2022-11-18T04:11:35.547Z,11.07
2022-11-18T04:14:06.050Z,11.98
2022-11-18T04:16:45.238Z,11.15
2022-11-18T04:19:13.642Z,11.00
2022-11-18T04:21:42.499Z,11.50
2022-11-18T04:24:10.475Z,11.00
2022-11-18T04:26:38.652Z,10.90
2022-11-18T04:29:06.746Z,11.18
2022-11-18T04:31:34.601Z,10.15
2022-11-18T04:34:03.640Z,12.18
2022-11-18T04:36:31.494Z,11.57
2022-11-18T04:38:59.685Z,11.57
2022-11-18T04:41:47.603Z,11.30
2022-11-18T04:44:15.562Z,12.57
2022-11-18T04:46:43.691Z,11.32
2022-11-18T04:49:21.082Z,11.70
2022-11-18T04:51:49.796Z,11.32
2022-11-18T04:54:17.905Z,12.18
2022-11-18T04:56:48.980Z,10.85
2022-11-18T04:59:19.983Z,11.95
2022-11-18T05:01:48.830Z,11.98
2022-11-18T05:04:22.864Z,11.82
2022-11-18T05:06:52.832Z,11.38
2022-11-18T05:09:21.269Z,11.38
2022-11-18T05:12:07.687Z,12.13
2022-11-18T05:14:36.585Z,11.05
2022-11-18T05:17:06.330Z,10.93
2022-11-18T05:19:37.761Z,11.70
2022-11-18T05:22:05.714Z,11.80
2022-11-18T05:24:33.739Z,11.75
2022-11-18T05:27:02.222Z,12.23
2022-11-18T05:29:31.225Z,11.15
2022-11-18T05:31:59.537Z,11.98
2022-11-18T05:34:28.884Z,11.57
2022-11-18T05:36:58.510Z,12.07
2022-11-18T05:39:26.329Z,12.00
2022-11-18T05:42:13.038Z,13.00
2022-11-18T05:44:43.044Z,10.57
2022-11-18T05:47:11.000Z,12.35
2022-11-18T05:49:40.471Z,11.55
2022-11-18T05:52:08.324Z,11.05
2022-11-18T05:54:40.065Z,11.77
2022-11-18T05:57:08.957Z,12.70
2022-11-18T05:59:38.313Z,11.45
2022-11-18T06:02:08.860Z,11.95
2022-11-18T06:04:56.596Z,11.15
2022-11-18T06:07:40.279Z,11.30
2022-11-18T06:10:08.878Z,11.75
2022-11-18T06:12:49.645Z,12.35
2022-11-18T06:19:29.296Z,11.93
2022-11-18T06:21:58.151Z,12.93
2022-11-18T06:24:26.719Z,12.77
2022-11-18T06:26:56.936Z,12.63
2022-11-18T06:29:27.898Z,13.45
2022-11-18T06:31:56.579Z,13.90
2022-11-18T06:34:24.800Z,12.23
2022-11-18T06:36:53.064Z,12.13
2022-11-18T06:39:26.964Z,12.90
2022-11-18T06:42:50.723Z,11.95
2022-11-18T06:45:19.896Z,12.85
2022-11-18T06:47:48.881Z,13.45
2022-11-18T06:50:17.975Z,12.40
2022-11-18T06:52:45.814Z,12.77
2022-11-18T06:55:14.070Z,12.02
2022-11-18T06:57:42.514Z,11.40
2022-11-18T07:00:10.978Z,15.95
2022-11-18T07:02:39.435Z,11.48
2022-11-18T07:05:12.017Z,11.75
2022-11-18T07:07:47.221Z,10.63
2022-11-18T07:10:29.485Z,11.77
2022-11-18T07:12:58.194Z,12.68
2022-11-18T07:15:26.117Z,12.30
2022-11-18T07:17:54.789Z,12.55
2022-11-18T07:20:23.231Z,12.18
2022-11-18T07:22:54.366Z,12.05
2022-11-18T07:25:22.314Z,11.30
2022-11-18T07:27:50.869Z,11.77
2022-11-18T07:30:18.870Z,11.85
2022-11-18T07:32:46.854Z,11.35
2022-11-18T07:35:18.997Z,11.93
2022-11-18T07:37:47.411Z,10.25
2022-11-18T07:40:19.841Z,11.50
2022-11-18T07:42:49.449Z,10.60
2022-11-18T07:45:29.698Z,12.85
2022-11-18T14:30:37.822Z,20.13
2022-11-18T14:33:07.847Z,19.63
2022-11-18T14:35:39.459Z,20.45
2022-11-18T14:39:25.470Z,18.35
2022-11-18T14:41:49.349Z,18.52
2022-11-18T14:44:19.606Z,17.45
2022-11-18T14:47:25.337Z,18.88
2022-11-18T14:50:00.496Z,20.25
2022-11-18T14:52:28.367Z,18.42
2022-11-18T14:54:58.210Z,19.27
2022-11-18T14:57:26.706Z,18.83
2022-11-18T14:59:57.313Z,19.35
2022-11-18T15:02:26.436Z,20.38
2022-11-18T15:04:56.394Z,21.10
2022-11-18T15:07:32.931Z,23.17
2022-11-18T15:10:01.195Z,22.05
2022-11-18T15:12:36.541Z,22.13
2022-11-18T15:15:05.964Z,23.40
2022-11-18T15:17:36.446Z,24.15
2022-11-18T15:20:22.907Z,23.98
2022-11-18T15:23:00.568Z,25.02
2022-11-18T15:25:28.738Z,22.60
2022-11-18T15:27:56.608Z,25.00
2022-11-18T15:30:25.729Z,25.92
2022-11-18T15:32:53.660Z,24.67
2022-11-18T15:35:21.582Z,24.02
2022-11-18T15:37:50.063Z,26.10
2022-11-18T15:40:19.909Z,23.95
2022-11-18T15:42:52.444Z,22.75
2022-11-18T15:45:28.525Z,23.17
2022-11-18T15:47:57.160Z,22.15
2022-11-18T15:50:36.462Z,20.83
2022-11-18T15:53:14.807Z,21.90
2022-11-18T15:56:30.923Z,21.17
2022-11-18T15:59:52.189Z,29.67
2022-11-18T16:02:46.952Z,25.85
2022-11-18T16:05:14.986Z,23.27
2022-11-18T16:07:45.198Z,23.50
2022-11-18T16:10:38.762Z,25.25
2022-11-18T16:13:15.036Z,24.33
2022-11-18T16:15:52.106Z,23.40
2022-11-18T16:18:27.785Z,25.25
2022-11-18T16:21:02.391Z,23.13
2022-11-18T16:23:34.681Z,24.50
2022-11-18T16:26:17.428Z,21.52
2022-11-18T16:28:55.894Z,22.20
2022-11-18T16:31:50.552Z,21.23
2022-11-18T16:34:29.990Z,19.75
2022-11-18T16:38:07.743Z,19.25
2022-11-18T16:41:32.507Z,18.15
2022-11-18T16:44:24.640Z,18.20
2022-11-18T16:46:59.267Z,17.60
2022-11-18T16:53:53.513Z,16.83
2022-11-18T16:58:21.483Z,16.83
2022-11-18T17:01:18.606Z,20.92
2022-11-18T17:05:28.626Z,22.05
2022-11-18T17:09:07.348Z,21.13
2022-11-18T17:11:41.002Z,22.27
2022-11-18T20:00:42.831Z,20.08
2022-11-18T20:03:15.975Z,18.85
2022-11-18T20:05:59.048Z,18.83
2022-11-18T20:08:35.261Z,21.10
2022-11-18T20:11:09.266Z,22.98
2022-11-18T20:13:41.734Z,19.98
2022-11-18T20:16:19.305Z,20.42
2022-11-18T20:19:16.914Z,19.38
2022-11-18T20:21:54.025Z,20.77
2022-11-18T20:24:26.291Z,21.75
2022-11-18T20:27:01.603Z,19.73
2022-11-18T20:29:31.112Z,19.25
2022-11-18T20:32:01.443Z,16.58
2022-11-18T20:35:21.507Z,16.58
2022-11-18T20:38:01.406Z,16.23
2022-11-18T20:40:38.289Z,16.77
2022-11-18T20:43:26.575Z,16.50
2022-11-18T20:46:20.055Z,17.40
2022-11-18T20:48:51.448Z,19.73
2022-11-18T20:51:24.494Z,22.70
2022-11-18T20:53:54.516Z,23.38
2022-11-18T20:56:25.915Z,24.02
2022-11-18T21:00:02.471Z,24.20
2022-11-18T21:02:36.905Z,21.27
2022-11-18T21:05:19.928Z,21.70
2022-11-18T21:08:11.640Z,20.50
2022-11-18T21:10:43.577Z,22.48
2022-11-18T21:13:45.557Z,18.92
2022-11-18T21:16:23.312Z,20.70
2022-11-18T21:18:52.387Z,20.27
2022-11-18T21:21:40.140Z,20.13
2022-11-18T21:24:09.675Z,18.27
2022-11-18T21:26:39.540Z,20.40
2022-11-18T21:29:10.289Z,19.50
2022-11-18T21:31:38.649Z,20.67
2022-11-18T21:34:07.527Z,20.70
2022-11-18T21:36:42.738Z,21.30
2022-11-18T21:39:13.922Z,22.33
2022-11-18T21:41:55.681Z,23.58
2022-11-18T21:44:58.359Z,28.25
2022-11-18T21:47:28.274Z,25.90
2022-11-18T21:50:00.893Z,23.60
2022-11-18T21:52:28.964Z,23.63
2022-11-18T21:54:57.928Z,22.80
2022-11-18T21:57:30.871Z,22.08
2022-11-18T22:00:01.876Z,20.83
2022-11-18T22:02:40.372Z,21.33
2022-11-18T22:05:10.513Z,22.23
2022-11-18T22:07:41.563Z,20.73
2022-11-18T22:10:13.908Z,21.42
2022-11-18T22:12:43.175Z,22.20
2022-11-18T22:15:13.840Z,19.98
2022-11-18T22:17:49.387Z,20.98
2022-11-18T22:20:18.105Z,21.92
2022-11-18T22:22:46.713Z,25.67
2022-11-18T22:25:15.125Z,29.83
2022-11-18T22:27:44.536Z,37.63
2022-11-18T22:30:12.762Z,35.38
2022-11-18T22:35:33.337Z,34.17
2022-11-18T22:38:10.523Z,34.55
2022-11-18T22:40:39.759Z,33.42
2022-11-18T22:43:07.851Z,34.85
2022-11-18T22:45:37.403Z,34.67
2022-11-18T22:48:07.095Z,34.17
2022-11-18T22:50:35.821Z,29.63
2022-11-18T22:53:14.256Z,26.65
2022-11-18T22:56:19.409Z,29.35
2022-11-18T23:00:03.401Z,33.40
2022-11-18T23:02:55.877Z,40.47
2022-11-18T23:05:24.269Z,42.17
2022-11-18T23:07:53.618Z,37.30
2022-11-18T23:10:33.094Z,36.92
2022-11-18T23:13:23.774Z,30.25
2022-11-18T23:15:56.353Z,27.92
2022-11-18T23:18:25.591Z,26.25
2022-11-18T23:21:04.436Z,27.70
2022-11-18T23:23:32.663Z,22.42
2022-11-18T23:26:07.491Z,21.13
2022-11-18T23:28:37.817Z,22.23
2022-11-18T23:31:11.161Z,20.20
2022-11-18T23:33:43.333Z,22.92
2022-11-18T23:36:12.855Z,22.63
2022-11-18T23:38:52.716Z,24.05
2022-11-18T23:41:24.273Z,24.65
2022-11-18T23:44:00.467Z,24.25
2022-11-18T23:46:34.953Z,24.45
2022-11-18T23:49:09.689Z,24.83
2022-11-18T23:51:39.105Z,24.80
2022-11-18T23:54:10.388Z,23.10
2022-11-18T23:56:38.952Z,22.25
2022-11-18T23:59:09.745Z,23.75
